TULLOCH (TUL)

Elevation: 515' · STANISLAUS R basin · Operator: US Bureau of Reclamation

Provisional data, subject to change.
Query executed Friday at 1:24:31   clock

Select a sensor type for a plot of data.
Note: Reservoir Flows are daily averages.

Earlier

Date RES ELE    STORAGE    RES CHG    TOC STO    ABV TOC    OUTFLOW    INFLOW    EVAP    RIV REL    SPILL    DIS PWR   
 FEET   AF   AF   AF   AF   CFS   CFS   CFS   CFS   CFS   CFS  
04/28/2016 505.00 60907 -- 62556 -1649 2899 4032 4 0 538 2361
04/29/2016 505.83 61883 976 62694 -811 2385 2884 7 0 0 2385
04/30/2016 505.75 61789 -94 62833 -1044 1954 1916 9 0 0 1954
05/01/2016 505.67 61695 -94 62972 -1277 1976 1941 12 0 0 1976
05/02/2016 505.27 61225 -470 63111 -1886 3382 3155 10 8 1026 2348
05/03/2016 505.96 62036 811 63250 -1214 3350 3770 11 0 1010 2340
05/04/2016 504.66 60514 -1522 63389 -2875 3191 2432 8 0 848 2343
05/05/2016 506.07 62167 1653 63528 -1361 2948 3789 8 0 586 2362
05/06/2016 507.07 63362 1195 63667 -305 2670 3278 6 73 197 2400
05/07/2016 506.77 63002 -360 63806 -804 2269 2089 1 20 0 2249
05/08/2016 506.99 63265 263 63944 -679 2064 2199 2 105 0 1959
05/09/2016 508.02 64514 1249 64083 431 2982 3618 6 4 633 2345
05/10/2016 508.28 64834 320 64222 612 3222 3393 10 0 790 2432
05/11/2016 507.23 63556 -1278 64361 -805 2768 2133 9 0 330 2438
05/12/2016 507.21 63532 -24 64500 -968 2471 2468 9 0 65 2406
05/13/2016 507.54 63931 399 64639 -708 2316 2529 12 0 0 2316
05/14/2016 507.60 64004 73 64778 -774 2155 2207 15 0 0 2155
05/15/2016 506.75 62979 -1025 64917 -1938 2030 1528 15 0 0 2030
05/16/2016 506.71 62931 -48 65056 -2125 1948 1939 15 0 0 1948
05/17/2016 506.56 62752 -179 65194 -2442 1940 1865 15 0 0 1940
05/18/2016 507.16 63471 719 65333 -1862 1932 2308 14 0 0 1932
05/19/2016 506.46 62632 -839 65472 -2840 1864 1455 14 0 0 1864
05/20/2016 506.87 63122 490 65611 -2489 1859 2126 20 0 0 1859
05/21/2016 506.76 62990 -132 65750 -2760 1868 1811 10 0 0 1868
05/22/2016 506.57 62764 -226 65889 -3125 1785 1682 11 0 0 1785
05/23/2016 507.35 63701 937 66028 -2327 1748 2231 11 0 0 1748
05/24/2016 508.32 64883 1182 66167 -1284 1733 2337 8 0 0 1733
05/25/2016 508.64 65277 394 66306 -1029 1645 1853 9 0 0 1645
05/26/2016 -- -- -- -- -- -- -- -- -- -- --
05/27/2016 -- -- -- -- -- -- -- -- -- -- --

Later | Latest

Warning! This data is preliminary and subject to revision.

Show TUL Map | Plot TUL Data | 1 Month TUL Data | Real-Time TUL Data | TUL Info